createdAt,value
2018-09-23T00:01:39.575Z,1.97
2018-09-23T00:04:06.493Z,2.07
2018-09-23T00:06:33.440Z,2.00
2018-09-23T00:09:00.382Z,2.00
2018-09-23T00:11:28.268Z,1.87
2018-09-23T00:13:55.159Z,2.00
2018-09-23T00:16:22.076Z,2.20
2018-09-23T00:18:49.020Z,2.20
2018-09-23T00:21:15.991Z,2.07
2018-09-23T00:23:43.110Z,1.80
2018-09-23T00:26:10.034Z,2.07
2018-09-23T00:28:38.067Z,2.37
2018-09-23T00:31:05.129Z,1.90
2018-09-23T00:33:32.725Z,1.87
2018-09-23T00:35:59.747Z,2.27
2018-09-23T00:38:26.687Z,1.97
2018-09-23T00:40:53.626Z,1.70
2018-09-23T00:43:20.629Z,1.93
2018-09-23T00:45:47.601Z,2.00
2018-09-23T00:48:14.558Z,2.37
2018-09-23T00:50:41.554Z,2.17
2018-09-23T00:53:08.487Z,2.80
2018-09-23T00:55:35.432Z,2.33
2018-09-23T00:58:02.419Z,2.30
2018-09-23T01:00:29.334Z,2.40
2018-09-23T01:02:56.244Z,2.60
2018-09-23T01:05:23.210Z,2.30
2018-09-23T01:07:50.128Z,2.90
2018-09-23T01:10:17.102Z,2.70
2018-09-23T01:12:44.042Z,2.70
2018-09-23T01:15:10.962Z,3.00
2018-09-23T01:17:37.936Z,2.53
2018-09-23T01:20:05.023Z,3.53
2018-09-23T01:22:31.999Z,3.20
2018-09-23T01:24:58.987Z,3.27
2018-09-23T01:27:25.939Z,3.10
2018-09-23T01:29:52.951Z,3.13
2018-09-23T01:32:19.872Z,3.07
2018-09-23T01:34:46.911Z,2.73
2018-09-23T01:37:13.797Z,2.87
2018-09-23T01:39:40.739Z,2.90
2018-09-23T01:42:07.672Z,2.83
2018-09-23T01:44:34.579Z,2.80
2018-09-23T01:47:01.613Z,3.30
2018-09-23T01:49:28.534Z,2.90
2018-09-23T01:51:55.456Z,2.90
2018-09-23T01:54:22.370Z,2.93
2018-09-23T01:56:49.282Z,2.97
2018-09-23T01:59:16.191Z,2.80
2018-09-23T02:01:43.074Z,2.60
2018-09-23T02:04:10.082Z,2.80
2018-09-23T02:06:36.992Z,2.57
2018-09-23T02:09:05.671Z,2.67
2018-09-23T02:11:32.629Z,3.50
2018-09-23T02:13:59.551Z,2.90
2018-09-23T02:16:26.445Z,2.30
2018-09-23T02:18:53.341Z,2.67
2018-09-23T02:21:20.334Z,2.70
2018-09-23T02:23:47.323Z,2.60
2018-09-23T02:26:14.223Z,2.70
2018-09-23T02:28:41.135Z,2.40
2018-09-23T02:31:08.073Z,2.50
2018-09-23T02:33:35.008Z,2.37
2018-09-23T02:36:01.920Z,2.30
2018-09-23T02:38:28.924Z,2.87
2018-09-23T02:40:55.843Z,2.50
2018-09-23T02:43:22.848Z,2.70
2018-09-23T02:45:49.803Z,2.63
2018-09-23T02:48:16.755Z,2.33
2018-09-23T02:50:43.666Z,2.80
2018-09-23T02:53:10.563Z,2.67
2018-09-23T02:55:37.454Z,2.40
2018-09-23T02:58:04.520Z,2.70
2018-09-23T03:00:31.470Z,2.87
2018-09-23T03:02:58.370Z,6.60
2018-09-23T03:05:25.960Z,3.57
2018-09-23T03:07:52.908Z,3.30
2018-09-23T03:10:19.826Z,3.50
2018-09-23T03:12:46.800Z,3.00
2018-09-23T03:15:13.705Z,3.23
2018-09-23T03:17:40.619Z,3.37
2018-09-23T03:20:07.536Z,3.50
2018-09-23T03:22:36.593Z,3.47
2018-09-23T03:25:03.519Z,3.73
2018-09-23T03:27:30.975Z,3.67
2018-09-23T03:29:57.915Z,3.33
2018-09-23T03:32:24.811Z,3.57
2018-09-23T03:34:51.695Z,4.57
2018-09-23T03:37:18.613Z,3.90
2018-09-23T03:39:46.180Z,4.37
2018-09-23T03:42:13.556Z,4.13
2018-09-23T03:44:40.450Z,4.10
2018-09-23T03:47:07.361Z,4.50
2018-09-23T03:49:34.286Z,4.20
2018-09-23T03:52:01.282Z,4.50
2018-09-23T03:54:28.164Z,4.40
2018-09-23T03:56:55.086Z,4.03
2018-09-23T03:59:22.095Z,4.07
2018-09-23T04:01:49.981Z,6.10
2018-09-23T04:04:16.900Z,4.90
2018-09-23T04:06:44.044Z,4.63
2018-09-23T04:09:10.984Z,4.47
2018-09-23T04:11:37.995Z,4.43
2018-09-23T04:14:04.976Z,4.30
2018-09-23T04:16:31.960Z,4.57
2018-09-23T04:18:58.884Z,4.07
2018-09-23T04:26:20.538Z,4.00
2018-09-23T04:28:47.478Z,4.30
2018-09-23T04:31:14.414Z,4.07
2018-09-23T04:33:41.384Z,4.20
2018-09-23T04:36:08.308Z,4.20
2018-09-23T04:38:35.260Z,4.30
2018-09-23T04:41:02.266Z,4.23
2018-09-23T04:43:29.252Z,3.90
2018-09-23T04:45:56.159Z,4.03
2018-09-23T04:48:23.127Z,4.20
2018-09-23T04:50:50.057Z,4.23
2018-09-23T04:53:16.971Z,3.77
2018-09-23T04:55:43.921Z,3.50
2018-09-23T04:58:10.896Z,4.30
2018-09-23T05:00:37.859Z,4.27
2018-09-23T05:03:04.903Z,3.90
2018-09-23T05:05:31.863Z,3.80
2018-09-23T05:07:58.795Z,3.43
2018-09-23T05:10:25.811Z,3.97
2018-09-23T05:12:52.727Z,4.23
2018-09-23T05:15:19.659Z,4.23
2018-09-23T05:17:46.687Z,4.50
2018-09-23T05:20:13.585Z,4.10
2018-09-23T05:22:40.500Z,4.10
2018-09-23T05:25:08.696Z,3.63
2018-09-23T05:27:35.666Z,4.00
2018-09-23T05:30:02.674Z,3.77
2018-09-23T05:32:29.600Z,3.90
2018-09-23T05:34:56.518Z,3.93
2018-09-23T05:37:23.433Z,3.90
2018-09-23T05:39:50.340Z,3.83
2018-09-23T05:42:17.301Z,3.67
2018-09-23T05:44:44.786Z,3.60
2018-09-23T05:47:11.715Z,4.23
2018-09-23T05:49:38.683Z,8.47
2018-09-23T05:52:05.925Z,5.57
2018-09-23T05:54:32.851Z,4.67
2018-09-23T05:56:59.779Z,4.23
2018-09-23T05:59:26.714Z,4.90
2018-09-23T06:01:53.700Z,4.60
2018-09-23T06:04:20.754Z,4.30
2018-09-23T06:06:47.706Z,5.00
2018-09-23T06:09:14.652Z,3.83
2018-09-23T06:11:41.598Z,3.90
2018-09-23T06:14:08.569Z,4.23
2018-09-23T06:16:35.522Z,3.77
2018-09-23T06:19:02.524Z,4.40
2018-09-23T06:21:29.426Z,5.17
2018-09-23T06:23:56.373Z,5.10
2018-09-23T06:26:23.260Z,3.47
2018-09-23T06:28:50.247Z,3.60
2018-09-23T06:31:17.182Z,4.20
2018-09-23T06:33:44.128Z,4.17
2018-09-23T06:36:11.043Z,4.10
2018-09-23T06:38:37.980Z,3.63
2018-09-23T06:41:05.223Z,5.03
2018-09-23T06:43:32.143Z,4.23
2018-09-23T06:45:59.077Z,3.47
2018-09-23T06:48:26.015Z,4.00
2018-09-23T06:50:52.959Z,4.57
2018-09-23T06:53:19.916Z,4.40
2018-09-23T06:55:46.949Z,4.00
2018-09-23T06:58:13.932Z,3.83
2018-09-23T07:00:40.839Z,4.40
2018-09-23T07:03:07.756Z,3.97
2018-09-23T07:05:34.673Z,4.23
2018-09-23T07:08:01.641Z,4.33
2018-09-23T07:10:28.535Z,3.83
2018-09-23T07:12:55.482Z,3.87
2018-09-23T07:15:22.359Z,3.70
2018-09-23T07:17:49.238Z,3.47
2018-09-23T07:20:16.100Z,3.77
2018-09-23T07:22:43.247Z,3.60
2018-09-23T07:25:10.183Z,3.90
2018-09-23T07:27:37.108Z,3.23
2018-09-23T07:30:04.265Z,3.73
2018-09-23T07:32:31.083Z,3.90
2018-09-23T07:34:57.955Z,3.57
2018-09-23T07:37:24.895Z,3.50
2018-09-23T07:39:51.833Z,3.60
2018-09-23T07:42:18.703Z,3.53
2018-09-23T07:44:45.600Z,3.77
2018-09-23T07:47:12.519Z,3.83
2018-09-23T07:49:39.415Z,3.70
2018-09-23T07:52:06.353Z,3.37
2018-09-23T07:54:33.258Z,3.67
2018-09-23T07:57:00.112Z,3.77
2018-09-23T07:59:27.028Z,3.50
2018-09-23T08:06:46.915Z,2.80
2018-09-23T08:09:13.862Z,3.17
2018-09-23T08:11:40.832Z,3.07
2018-09-23T08:14:08.560Z,2.60
2018-09-23T08:16:35.296Z,2.97
2018-09-23T08:19:02.217Z,3.10
2018-09-23T08:21:29.109Z,3.27
2018-09-23T08:23:55.987Z,3.00
2018-09-23T08:26:22.990Z,2.87
2018-09-23T08:28:49.993Z,2.63
2018-09-23T08:31:16.899Z,2.60
2018-09-23T08:33:43.807Z,3.00
2018-09-23T08:36:11.082Z,2.40
2018-09-23T08:38:38.026Z,3.13
2018-09-23T08:41:05.871Z,2.77
2018-09-23T08:48:24.646Z,2.90
2018-09-23T08:50:51.520Z,2.67
2018-09-23T08:53:18.524Z,3.60
2018-09-23T08:55:46.110Z,3.10
2018-09-23T08:58:13.065Z,2.90
2018-09-23T09:00:39.963Z,3.83
2018-09-23T09:03:06.903Z,2.83
2018-09-23T09:05:33.811Z,2.30
2018-09-23T09:08:00.721Z,2.10
2018-09-23T09:10:27.648Z,2.37
2018-09-23T09:12:54.532Z,2.20
2018-09-23T09:15:21.455Z,2.37
2018-09-23T09:17:48.367Z,1.90
2018-09-23T09:20:15.315Z,1.90
2018-09-23T09:22:42.252Z,2.33
2018-09-23T09:25:09.165Z,2.30
2018-09-23T09:27:36.098Z,2.00
2018-09-23T09:30:03.078Z,2.03
2018-09-23T09:32:29.970Z,1.87
2018-09-23T09:34:56.887Z,1.80
2018-09-23T09:42:18.598Z,1.70
2018-09-23T09:44:45.555Z,2.00
2018-09-23T09:47:12.459Z,2.67
2018-09-23T09:49:39.457Z,2.10
2018-09-23T09:52:06.414Z,1.70
2018-09-23T09:54:33.371Z,1.87
2018-09-23T09:57:00.263Z,2.07
2018-09-23T09:59:27.195Z,1.80
2018-09-23T10:01:54.141Z,2.20
2018-09-23T10:04:21.072Z,2.20
2018-09-23T10:06:48.107Z,2.13
2018-09-23T10:09:14.997Z,2.20
2018-09-23T10:11:41.904Z,1.93
2018-09-23T10:14:09.006Z,2.20
2018-09-23T10:16:35.948Z,1.63
2018-09-23T10:19:03.010Z,1.87
2018-09-23T10:21:29.899Z,1.80
2018-09-23T10:24:00.506Z,1.70
2018-09-23T10:26:27.448Z,1.70
2018-09-23T10:28:54.366Z,1.80
2018-09-23T10:31:21.354Z,2.20
2018-09-23T10:33:48.176Z,1.80
2018-09-23T10:36:15.189Z,1.60
2018-09-23T10:38:42.136Z,1.77
2018-09-23T10:41:09.101Z,2.20
2018-09-23T10:43:35.962Z,1.50
2018-09-23T10:46:02.939Z,1.72
2018-09-23T10:48:29.956Z,1.70
2018-09-23T10:50:56.928Z,3.27
2018-09-23T10:53:23.832Z,1.83
2018-09-23T10:55:50.804Z,1.70
2018-09-23T10:58:17.786Z,1.70
2018-09-23T11:00:44.714Z,1.60
2018-09-23T11:03:11.913Z,1.77
2018-09-23T11:05:38.899Z,1.40
2018-09-23T11:08:05.899Z,2.33
2018-09-23T11:10:32.794Z,1.70
2018-09-23T11:12:59.709Z,1.30
2018-09-23T11:15:26.683Z,1.20
2018-09-23T11:17:53.559Z,1.73
2018-09-23T11:20:20.494Z,1.40
2018-09-23T11:22:47.500Z,1.33
2018-09-23T11:25:14.407Z,1.30
2018-09-23T11:27:41.413Z,1.53
2018-09-23T11:30:08.359Z,2.00
2018-09-23T11:32:35.271Z,1.65
2018-09-23T11:35:02.214Z,2.00
2018-09-23T11:37:29.111Z,2.43
2018-09-23T11:39:56.159Z,2.25
2018-09-23T11:42:23.058Z,2.37
2018-09-23T11:44:49.969Z,2.10
2018-09-23T11:47:16.857Z,1.50
2018-09-23T11:49:43.785Z,1.33
2018-09-23T11:52:10.641Z,1.77
2018-09-23T11:54:37.577Z,1.53
2018-09-23T11:57:04.485Z,2.20
2018-09-23T11:59:31.408Z,1.63
2018-09-23T12:02:00.407Z,1.57
2018-09-23T12:04:27.375Z,2.00
2018-09-23T12:06:54.330Z,2.10
2018-09-23T12:09:21.255Z,2.00
2018-09-23T12:11:48.275Z,2.33
2018-09-23T12:14:15.168Z,2.00
2018-09-23T12:16:42.082Z,2.00
2018-09-23T12:19:09.002Z,1.87
2018-09-23T12:21:35.896Z,2.00
2018-09-23T12:24:02.820Z,2.17
2018-09-23T12:26:29.738Z,2.10
2018-09-23T12:28:56.678Z,1.83
2018-09-23T12:31:23.614Z,2.20
2018-09-23T12:33:50.506Z,2.00
2018-09-23T12:36:17.403Z,2.20
2018-09-23T12:38:44.320Z,1.90
2018-09-23T12:41:11.303Z,2.13
2018-09-23T12:43:38.217Z,2.10
2018-09-23T12:46:05.297Z,1.77
2018-09-23T12:48:32.252Z,1.73
2018-09-23T12:50:59.287Z,1.57
2018-09-23T12:53:26.234Z,2.00
2018-09-23T12:55:53.266Z,1.80
2018-09-23T12:58:20.200Z,1.97
2018-09-23T13:00:47.201Z,2.20
2018-09-23T13:03:14.354Z,2.17
2018-09-23T13:05:41.361Z,2.13
2018-09-23T13:08:08.410Z,2.00
2018-09-23T13:10:35.352Z,2.80
2018-09-23T13:13:02.333Z,2.77
2018-09-23T13:15:29.313Z,2.43
2018-09-23T13:17:56.364Z,2.60
2018-09-23T13:20:23.299Z,2.20
2018-09-23T13:22:50.374Z,3.13
2018-09-23T13:25:17.362Z,2.90
2018-09-23T13:27:44.295Z,2.33
2018-09-23T13:30:11.332Z,2.67
2018-09-23T13:32:38.235Z,2.43
2018-09-23T13:35:05.149Z,2.43
2018-09-23T13:37:32.147Z,2.50
2018-09-23T13:39:59.087Z,3.27
2018-09-23T13:42:26.043Z,3.27
2018-09-23T13:44:52.946Z,3.17
2018-09-23T13:47:19.847Z,3.03
2018-09-23T13:49:46.819Z,2.73
2018-09-23T13:52:13.731Z,2.90
2018-09-23T13:54:40.671Z,2.87
2018-09-23T13:57:07.716Z,2.93
2018-09-23T13:59:34.620Z,3.27
2018-09-23T14:02:01.586Z,3.30
2018-09-23T14:04:28.578Z,3.30
2018-09-23T14:06:55.603Z,3.53
2018-09-23T14:09:22.538Z,3.40
2018-09-23T14:11:49.488Z,3.47
2018-09-23T14:14:16.430Z,4.00
2018-09-23T14:16:43.393Z,3.50
2018-09-23T14:19:10.458Z,4.50
2018-09-23T14:21:37.444Z,4.40
2018-09-23T14:24:04.560Z,4.47
2018-09-23T14:26:31.517Z,5.47
2018-09-23T14:28:58.570Z,4.53
2018-09-23T14:31:25.612Z,4.23
2018-09-23T14:33:52.698Z,4.90
2018-09-23T14:36:19.693Z,5.10
2018-09-23T14:38:46.789Z,4.60
2018-09-23T14:41:13.872Z,4.27
2018-09-23T14:43:40.789Z,3.60
2018-09-23T14:46:08.171Z,3.90
2018-09-23T14:48:35.132Z,3.83
2018-09-23T14:51:02.112Z,3.73
2018-09-23T14:53:29.032Z,3.73
2018-09-23T14:55:56.053Z,4.10
2018-09-23T14:58:22.988Z,4.80
2018-09-23T15:00:49.924Z,4.10
2018-09-23T15:03:17.363Z,4.10
2018-09-23T15:05:44.286Z,4.43
2018-09-23T15:08:11.214Z,4.07
2018-09-23T15:10:38.120Z,4.50
2018-09-23T15:13:05.077Z,4.00
2018-09-23T15:15:32.030Z,4.13
2018-09-23T15:17:59.232Z,3.70
2018-09-23T15:20:26.226Z,3.90
2018-09-23T15:22:53.206Z,4.03
2018-09-23T15:25:20.207Z,3.97
2018-09-23T15:27:47.243Z,3.83
2018-09-23T15:30:22.768Z,4.13
2018-09-23T15:32:49.714Z,3.40
2018-09-23T15:35:16.623Z,3.80
2018-09-23T15:37:43.567Z,4.00
2018-09-23T15:40:10.479Z,3.87
2018-09-23T15:42:37.397Z,4.63
2018-09-23T15:45:04.442Z,4.60
2018-09-23T15:47:31.468Z,3.93
2018-09-23T15:49:58.488Z,4.13
2018-09-23T15:52:25.480Z,4.70
2018-09-23T15:54:52.419Z,4.03
2018-09-23T15:57:19.393Z,4.70
2018-09-23T15:59:46.488Z,4.00
2018-09-23T16:02:13.485Z,4.40
2018-09-23T16:04:40.446Z,4.33
2018-09-23T16:07:07.390Z,4.40
2018-09-23T16:09:34.595Z,4.27
2018-09-23T16:12:01.528Z,3.90
2018-09-23T16:14:28.499Z,4.50
2018-09-23T16:16:55.566Z,3.70
2018-09-23T16:19:22.525Z,4.93
2018-09-23T16:21:49.461Z,4.27
2018-09-23T16:24:16.607Z,4.43
2018-09-23T16:26:43.579Z,5.23
2018-09-23T16:29:10.494Z,4.17
2018-09-23T16:31:37.439Z,3.90
2018-09-23T16:34:04.465Z,4.43
2018-09-23T16:36:31.425Z,4.50
2018-09-23T16:38:58.422Z,3.37
2018-09-23T16:41:25.400Z,3.40
2018-09-23T16:43:52.351Z,3.77
2018-09-23T16:46:19.359Z,3.67
2018-09-23T16:48:46.639Z,3.90
2018-09-23T16:51:13.583Z,4.60
2018-09-23T16:53:40.542Z,4.30
2018-09-23T16:56:07.526Z,4.03
2018-09-23T16:58:34.490Z,4.13
2018-09-23T17:01:01.615Z,4.20
2018-09-23T17:03:28.543Z,3.93
2018-09-23T17:05:55.485Z,3.70
2018-09-23T17:08:22.475Z,2.97
2018-09-23T17:10:49.447Z,3.27
2018-09-23T17:13:16.400Z,3.13
2018-09-23T17:15:43.319Z,2.50
2018-09-23T17:18:10.392Z,2.80
2018-09-23T17:20:37.327Z,2.53
2018-09-23T17:23:04.779Z,2.60
2018-09-23T17:25:31.711Z,2.80
2018-09-23T17:27:58.698Z,2.30
2018-09-23T17:30:25.800Z,2.33
2018-09-23T17:32:52.814Z,2.67
2018-09-23T17:35:19.910Z,2.20
2018-09-23T17:37:46.970Z,2.33
2018-09-23T17:40:13.929Z,2.30
2018-09-23T17:42:41.022Z,2.90
2018-09-23T17:45:07.951Z,2.67
2018-09-23T17:47:34.985Z,2.90
2018-09-23T17:50:02.159Z,3.07
2018-09-23T17:52:29.145Z,2.80
2018-09-23T17:54:56.100Z,2.70
2018-09-23T17:57:23.089Z,2.30
2018-09-23T17:59:50.072Z,3.07
2018-09-23T18:02:17.080Z,2.73
2018-09-23T18:04:44.083Z,3.13
2018-09-23T18:07:11.061Z,3.10
2018-09-23T18:09:38.033Z,3.20
2018-09-23T18:12:05.029Z,3.17
2018-09-23T18:14:32.013Z,3.60
2018-09-23T18:16:59.046Z,3.07
2018-09-23T18:19:26.103Z,4.33
2018-09-23T18:21:53.074Z,3.53
2018-09-23T18:24:23.844Z,3.03
2018-09-23T18:31:44.991Z,2.87
2018-09-23T18:34:12.005Z,2.00
2018-09-23T18:36:39.108Z,2.27
2018-09-23T18:39:08.620Z,2.20
2018-09-23T18:41:35.612Z,2.00
2018-09-23T18:44:02.974Z,2.50
2018-09-23T18:46:29.984Z,2.60
2018-09-23T18:48:56.977Z,2.30
2018-09-23T18:51:23.918Z,2.00
2018-09-23T18:53:56.815Z,2.53
2018-09-23T18:56:23.857Z,2.17
2018-09-23T18:58:50.864Z,2.00
2018-09-23T19:01:17.847Z,2.20
2018-09-23T19:03:44.847Z,2.10
2018-09-23T19:06:11.888Z,2.03
2018-09-23T19:08:38.981Z,2.20
2018-09-23T19:11:05.994Z,2.03
2018-09-23T19:13:38.768Z,2.20
2018-09-23T19:16:11.794Z,2.60
2018-09-23T19:18:38.787Z,2.40
2018-09-23T19:21:05.895Z,2.50
2018-09-23T19:23:32.869Z,2.90
2018-09-23T19:25:59.832Z,2.60
2018-09-23T19:28:27.079Z,3.20
2018-09-23T19:30:54.675Z,3.73
2018-09-23T19:33:21.630Z,4.77
2018-09-23T19:35:48.685Z,3.80
2018-09-23T19:38:15.612Z,3.37
2018-09-23T19:40:42.690Z,3.97
2018-09-23T19:43:09.782Z,3.10
2018-09-23T19:45:36.760Z,4.00
2018-09-23T19:48:04.513Z,3.40
2018-09-23T19:50:31.480Z,3.03
2018-09-23T19:52:58.475Z,3.60
2018-09-23T19:55:25.442Z,3.77
2018-09-23T19:57:52.531Z,3.77
2018-09-23T20:00:19.528Z,3.33
2018-09-23T20:02:46.588Z,3.50
2018-09-23T20:05:13.570Z,3.40
2018-09-23T20:07:40.528Z,3.23
2018-09-23T20:10:07.474Z,4.10
2018-09-23T20:12:34.533Z,4.17
2018-09-23T20:15:02.079Z,4.63
2018-09-23T20:17:30.392Z,5.10
2018-09-23T20:19:57.524Z,5.10
2018-09-23T20:22:24.510Z,6.00
2018-09-23T20:24:51.826Z,6.10
2018-09-23T20:27:18.801Z,7.13
2018-09-23T20:29:46.879Z,8.00
2018-09-23T20:32:14.093Z,8.40
2018-09-23T20:34:41.503Z,8.73
2018-09-23T20:37:08.703Z,8.40
2018-09-23T20:39:35.649Z,8.13
2018-09-23T20:42:03.191Z,6.57
2018-09-23T20:44:30.231Z,8.87
2018-09-23T20:46:57.144Z,6.40
2018-09-23T20:49:24.160Z,5.90
2018-09-23T20:51:51.144Z,5.27
2018-09-23T20:54:18.189Z,5.03
2018-09-23T20:56:45.422Z,4.60
2018-09-23T20:59:12.665Z,4.43
2018-09-23T21:01:40.598Z,4.17
2018-09-23T21:04:08.314Z,3.90
2018-09-23T21:06:35.267Z,3.93
2018-09-23T21:09:02.999Z,2.77
2018-09-23T21:11:30.086Z,3.20
2018-09-23T21:13:57.016Z,3.00
2018-09-23T21:16:24.024Z,3.30
2018-09-23T21:18:51.942Z,2.80
2018-09-23T21:21:18.861Z,2.60
2018-09-23T21:23:45.961Z,2.67
2018-09-23T21:26:12.991Z,2.10
2018-09-23T21:28:40.057Z,2.40
2018-09-23T21:31:07.027Z,2.13
2018-09-23T21:33:34.045Z,2.87
2018-09-23T21:36:01.696Z,1.63
2018-09-23T21:38:28.722Z,1.70
2018-09-23T21:40:55.688Z,1.80
2018-09-23T21:43:22.601Z,2.00
2018-09-23T21:45:49.639Z,3.47
2018-09-23T21:48:16.547Z,3.93
2018-09-23T21:50:43.476Z,4.40
2018-09-23T21:53:10.615Z,4.63
2018-09-23T21:55:37.628Z,5.30
2018-09-23T21:58:04.584Z,4.57
2018-09-23T22:00:37.347Z,3.73
2018-09-23T22:03:04.254Z,2.90
2018-09-23T22:05:31.174Z,3.13
2018-09-23T22:07:58.992Z,3.10
2018-09-23T22:10:26.165Z,2.63
2018-09-23T22:12:53.148Z,2.30
2018-09-23T22:15:24.221Z,2.63
2018-09-23T22:17:51.811Z,3.10
2018-09-23T22:20:18.725Z,3.10
2018-09-23T22:22:45.793Z,3.00
2018-09-23T22:25:12.735Z,3.37
2018-09-23T22:27:40.536Z,3.53
2018-09-23T22:30:07.550Z,3.70
2018-09-23T22:32:34.558Z,4.70
2018-09-23T22:35:01.889Z,3.57
2018-09-23T22:37:28.796Z,4.17
2018-09-23T22:39:55.800Z,3.97
2018-09-23T22:42:22.699Z,3.90
2018-09-23T22:44:49.612Z,3.77
2018-09-23T22:47:16.544Z,2.90
2018-09-23T22:49:43.456Z,3.50
2018-09-23T22:52:10.334Z,2.90
2018-09-23T22:54:37.262Z,2.83
2018-09-23T22:57:04.160Z,2.80
2018-09-23T22:59:31.079Z,3.03
2018-09-23T23:01:58.002Z,2.60
2018-09-23T23:04:24.960Z,2.60
2018-09-23T23:06:51.878Z,2.20
2018-09-23T23:14:13.089Z,2.30
2018-09-23T23:16:40.081Z,2.23
2018-09-23T23:19:07.006Z,2.23
2018-09-23T23:21:33.972Z,1.90
2018-09-23T23:24:00.837Z,2.30
2018-09-23T23:26:27.752Z,2.10
2018-09-23T23:28:54.709Z,2.00
2018-09-23T23:31:21.597Z,1.87
2018-09-23T23:33:48.598Z,2.00
2018-09-23T23:36:15.511Z,1.50
2018-09-23T23:38:42.412Z,1.93
2018-09-23T23:41:09.430Z,1.80
2018-09-23T23:43:36.358Z,1.90
2018-09-23T23:46:03.332Z,1.93
2018-09-23T23:48:30.260Z,1.60
2018-09-23T23:50:57.208Z,2.47
2018-09-23T23:53:24.074Z,1.70
2018-09-23T23:55:51.043Z,2.03
2018-09-23T23:58:17.996Z,2.30
